createdAt,value
2023-02-15T00:02:04.592Z,101991.84
2023-02-15T00:04:50.152Z,102002.16
2023-02-15T00:07:19.911Z,101984.56
2023-02-15T00:09:48.148Z,101982.97
2023-02-15T00:12:16.646Z,101988.81
2023-02-15T00:14:43.929Z,101973.44
2023-02-15T00:17:11.567Z,101981.63
2023-02-15T00:19:38.905Z,101983.56
2023-02-15T00:22:06.537Z,101978.50
2023-02-15T00:24:34.051Z,101980.53
2023-02-15T00:27:01.625Z,101990.97
2023-02-15T00:29:29.235Z,101986.66
2023-02-15T00:31:56.841Z,101982.84
2023-02-15T00:34:26.829Z,101965.53
2023-02-15T00:36:54.641Z,101977.56
2023-02-15T00:39:22.412Z,101967.53
2023-02-15T00:41:50.052Z,101961.59
2023-02-15T00:44:18.766Z,101974.69
2023-02-15T00:46:46.380Z,101966.22
2023-02-15T00:49:13.658Z,101966.66
2023-02-15T00:51:41.240Z,101954.03
2023-02-15T00:54:09.016Z,101947.41
2023-02-15T00:56:36.626Z,101949.28
2023-02-15T00:59:04.747Z,101942.88
2023-02-15T01:01:32.468Z,101947.19
2023-02-15T01:03:59.806Z,101947.13
2023-02-15T01:06:30.618Z,101943.34
2023-02-15T01:08:57.856Z,101927.78
2023-02-15T01:11:25.539Z,101942.84
2023-02-15T01:13:58.641Z,101941.34
2023-02-15T01:16:28.634Z,101929.41
2023-02-15T01:18:56.498Z,101929.88
2023-02-15T01:21:26.453Z,101936.16
2023-02-15T01:23:53.807Z,101931.41
2023-02-15T01:26:21.414Z,101917.09
2023-02-15T01:28:49.108Z,101929.28
2023-02-15T01:31:20.578Z,101930.28
2023-02-15T01:33:49.273Z,101920.25
2023-02-15T01:36:18.513Z,101907.09
2023-02-15T01:38:46.219Z,101917.28
2023-02-15T01:41:27.409Z,101905.75
2023-02-15T01:43:57.968Z,101910.97
2023-02-15T01:46:36.577Z,101914.09
2023-02-15T01:49:12.444Z,101905.78
2023-02-15T01:51:43.044Z,101914.81
2023-02-15T01:54:10.895Z,101920.63
2023-02-15T01:56:40.803Z,101926.63
2023-02-15T01:59:15.082Z,101901.25
2023-02-15T02:01:43.244Z,101913.28
2023-02-15T02:04:17.518Z,101904.50
2023-02-15T02:06:49.046Z,101912.56
2023-02-15T02:09:16.728Z,101915.53
2023-02-15T02:11:48.524Z,101900.97
2023-02-15T02:14:17.368Z,101896.38
2023-02-15T02:17:14.501Z,101890.41
2023-02-15T02:19:41.660Z,101892.22
2023-02-15T02:22:21.280Z,101897.75
2023-02-15T02:25:25.916Z,101876.88
2023-02-15T02:28:15.306Z,101877.63
2023-02-15T02:31:20.758Z,101880.63
2023-02-15T02:34:00.478Z,101872.47
2023-02-15T02:36:36.764Z,101866.81
2023-02-15T02:39:10.251Z,101884.03
2023-02-15T02:42:16.409Z,101874.41
2023-02-15T02:45:07.055Z,101872.25
2023-02-15T02:48:01.083Z,101871.94
2023-02-15T02:50:31.004Z,101864.34
2023-02-15T02:53:00.260Z,101872.81
2023-02-15T02:56:21.402Z,101866.72
2023-02-15T02:59:01.962Z,101869.22
2023-02-15T03:01:53.379Z,101861.56
2023-02-15T03:04:26.086Z,101859.97
2023-02-15T03:07:04.972Z,101866.06
2023-02-15T03:09:42.701Z,101870.94
2023-02-15T03:12:25.205Z,101859.81
2023-02-15T03:15:16.000Z,101873.50
2023-02-15T03:17:48.160Z,101849.97
2023-02-15T03:20:32.784Z,101846.94
2023-02-15T03:23:07.478Z,101856.28
2023-02-15T03:25:44.886Z,101855.31
2023-02-15T03:28:26.489Z,101842.25
2023-02-15T03:30:57.014Z,101843.78
2023-02-15T03:33:27.473Z,101842.25
2023-02-15T03:35:58.010Z,101848.34
2023-02-15T03:38:50.695Z,101833.72
2023-02-15T03:41:20.869Z,101845.41
2023-02-15T03:44:11.284Z,101841.84
2023-02-15T03:47:01.980Z,101834.53
2023-02-15T03:49:38.160Z,101837.13
2023-02-15T03:52:08.979Z,101830.00
2023-02-15T03:54:43.339Z,101833.03
2023-02-15T03:57:45.239Z,101831.72
2023-02-15T04:00:53.187Z,101836.38
2023-02-15T04:03:25.883Z,101835.47
2023-02-15T04:05:53.536Z,101825.81
2023-02-15T04:08:20.759Z,101825.28
2023-02-15T04:10:54.108Z,101826.22
2023-02-15T04:13:40.991Z,101829.22
2023-02-15T04:16:08.929Z,101830.13
2023-02-15T04:19:01.037Z,101826.06
2023-02-15T04:21:50.028Z,101831.28
2023-02-15T04:24:36.563Z,101829.09
2023-02-15T04:27:05.373Z,101823.19
2023-02-15T04:29:32.973Z,101832.69
2023-02-15T04:32:02.587Z,101827.41
2023-02-15T04:34:29.898Z,101828.00
2023-02-15T04:36:57.493Z,101817.31
2023-02-15T04:39:24.780Z,101815.56
2023-02-15T04:41:52.367Z,101811.19
2023-02-15T04:44:19.704Z,101808.06
2023-02-15T04:46:47.376Z,101813.94
2023-02-15T04:49:14.618Z,101806.56
2023-02-15T04:51:42.172Z,101807.03
2023-02-15T04:54:09.422Z,101810.97
2023-02-15T04:56:38.910Z,101813.22
2023-02-15T04:59:06.410Z,101812.25
2023-02-15T05:01:34.409Z,101808.63
2023-02-15T05:04:02.094Z,101791.78
2023-02-15T05:06:30.247Z,101800.84
2023-02-15T05:09:00.226Z,101790.63
2023-02-15T05:11:28.340Z,101806.13
2023-02-15T05:13:55.640Z,101804.97
2023-02-15T05:16:23.382Z,101798.81
2023-02-15T05:18:50.643Z,101802.44
2023-02-15T05:21:18.238Z,101802.16
2023-02-15T05:23:45.713Z,101781.66
2023-02-15T05:26:37.249Z,101798.34
2023-02-15T05:29:04.612Z,101796.97
2023-02-15T05:31:33.068Z,101801.09
2023-02-15T05:34:00.467Z,101795.03
2023-02-15T05:36:29.295Z,101793.47
2023-02-15T05:38:57.023Z,101789.19
2023-02-15T05:41:25.270Z,101781.66
2023-02-15T05:43:52.492Z,101781.31
2023-02-15T05:46:20.039Z,101777.88
2023-02-15T05:48:47.297Z,101777.38
2023-02-15T05:51:16.090Z,101782.66
2023-02-15T05:53:43.421Z,101779.75
2023-02-15T05:56:12.025Z,101775.44
2023-02-15T05:58:40.879Z,101774.91
2023-02-15T06:01:26.731Z,101779.00
2023-02-15T06:03:55.148Z,101768.09
2023-02-15T06:06:23.561Z,101770.59
2023-02-15T06:08:50.824Z,101774.00
2023-02-15T06:11:18.367Z,101773.81
2023-02-15T06:13:45.673Z,101776.03
2023-02-15T06:16:13.391Z,101774.41
2023-02-15T06:18:40.729Z,101777.00
2023-02-15T06:21:08.276Z,101774.03
2023-02-15T06:23:35.503Z,101770.72
2023-02-15T06:26:03.428Z,101771.28
2023-02-15T06:28:30.968Z,101769.56
2023-02-15T06:30:58.684Z,101778.22
2023-02-15T06:33:26.087Z,101777.44
2023-02-15T06:35:53.702Z,101765.63
2023-02-15T06:38:20.944Z,101775.13
2023-02-15T06:40:48.537Z,101768.41
2023-02-15T06:43:15.742Z,101772.66
2023-02-15T06:45:43.492Z,101768.72
2023-02-15T06:48:12.193Z,101761.63
2023-02-15T06:50:39.859Z,101766.06
2023-02-15T06:53:07.178Z,101756.19
2023-02-15T06:55:34.717Z,101760.78
2023-02-15T06:58:01.934Z,101760.50
2023-02-15T07:00:29.567Z,101762.44
2023-02-15T07:03:00.325Z,101755.22
2023-02-15T07:05:32.054Z,101759.34
2023-02-15T07:08:00.702Z,101755.09
2023-02-15T07:10:28.833Z,101760.72
2023-02-15T07:12:56.094Z,101748.47
2023-02-15T07:15:23.997Z,101746.22
2023-02-15T07:17:51.909Z,101738.03
2023-02-15T07:20:22.566Z,101745.06
2023-02-15T07:22:51.298Z,101741.41
2023-02-15T07:25:19.484Z,101750.50
2023-02-15T07:27:46.926Z,101742.63
2023-02-15T07:30:17.628Z,101736.56
2023-02-15T07:33:05.511Z,101744.66
2023-02-15T07:35:34.569Z,101740.06
2023-02-15T07:38:02.323Z,101736.16
2023-02-15T07:40:29.897Z,101742.19
2023-02-15T07:42:59.011Z,101738.03
2023-02-15T07:45:26.539Z,101726.00
2023-02-15T07:47:53.900Z,101717.94
2023-02-15T07:50:21.431Z,101717.69
2023-02-15T07:52:48.660Z,101722.13
2023-02-15T07:55:16.427Z,101724.97
2023-02-15T07:57:49.142Z,101720.19
2023-02-15T08:00:19.492Z,101720.34
2023-02-15T08:03:11.153Z,101705.97
2023-02-15T08:05:39.736Z,101714.25
2023-02-15T08:08:07.440Z,101694.47
2023-02-15T08:10:55.533Z,101692.69
2023-02-15T08:13:22.734Z,101699.66
2023-02-15T08:15:51.497Z,101700.00
2023-02-15T08:18:18.784Z,101695.19
2023-02-15T08:20:52.182Z,101698.25
2023-02-15T08:23:19.438Z,101687.81
2023-02-15T08:25:46.934Z,101690.28
2023-02-15T08:28:14.204Z,101686.88
2023-02-15T08:30:41.771Z,101678.84
2023-02-15T08:33:10.953Z,101682.41
2023-02-15T08:35:38.483Z,101679.56
2023-02-15T08:38:05.685Z,101680.47
2023-02-15T08:40:33.184Z,101673.56
2023-02-15T08:43:00.363Z,101681.88
2023-02-15T08:45:28.250Z,101683.47
2023-02-15T08:47:55.529Z,101668.28
2023-02-15T08:50:23.040Z,101678.06
2023-02-15T08:52:50.244Z,101666.75
2023-02-15T08:55:17.746Z,101664.09
2023-02-15T08:57:46.520Z,101661.97
2023-02-15T09:00:14.672Z,101663.84
2023-02-15T09:02:42.041Z,101671.13
2023-02-15T09:05:10.176Z,101648.88
2023-02-15T09:07:37.371Z,101656.66
2023-02-15T09:10:05.486Z,101654.59
2023-02-15T09:12:32.708Z,101642.56
2023-02-15T09:15:00.306Z,101659.47
2023-02-15T09:17:27.709Z,101658.22
2023-02-15T09:19:55.275Z,101649.78
2023-02-15T09:22:22.567Z,101649.75
2023-02-15T09:24:50.200Z,101658.38
2023-02-15T09:27:17.466Z,101647.66
2023-02-15T09:29:44.982Z,101649.84
2023-02-15T09:32:15.451Z,101632.53
2023-02-15T09:34:42.975Z,101639.00
2023-02-15T09:37:10.216Z,101644.94
2023-02-15T09:39:42.088Z,101637.66
2023-02-15T09:45:34.411Z,101638.22
2023-02-15T09:48:24.788Z,101642.88
2023-02-15T09:51:01.590Z,101635.69
2023-02-15T09:53:54.644Z,101627.06
2023-02-15T09:56:44.336Z,101627.97
2023-02-15T09:59:27.681Z,101631.88
2023-02-15T10:02:23.834Z,101628.66
2023-02-15T10:05:15.336Z,101623.66
2023-02-15T10:08:00.942Z,101618.25
2023-02-15T10:10:30.883Z,101620.19
2023-02-15T10:13:17.610Z,101607.38
2023-02-15T10:15:59.874Z,101617.31
2023-02-15T10:18:33.158Z,101621.31
2023-02-15T10:21:11.147Z,101612.63
2023-02-15T10:23:58.359Z,101611.66
2023-02-15T10:26:45.569Z,101619.50
2023-02-15T10:29:38.377Z,101618.50
2023-02-15T10:32:24.602Z,101611.78
2023-02-15T10:35:02.220Z,101608.75
2023-02-15T10:37:41.377Z,101615.84
2023-02-15T10:40:11.829Z,101609.81
2023-02-15T10:42:45.016Z,101598.25
2023-02-15T10:45:40.191Z,101606.31
2023-02-15T10:48:12.868Z,101599.59
2023-02-15T10:50:48.248Z,101595.56
2023-02-15T10:53:40.896Z,101600.63
2023-02-15T10:56:26.014Z,101587.38
2023-02-15T10:59:10.054Z,101573.41
2023-02-15T11:01:52.749Z,101580.94
2023-02-15T11:04:44.742Z,101578.91
2023-02-15T11:07:36.425Z,101571.31
2023-02-15T11:10:21.015Z,101572.47
2023-02-15T11:12:50.834Z,101568.59
2023-02-15T11:15:26.404Z,101563.03
2023-02-15T11:17:59.948Z,101563.88
2023-02-15T11:20:34.638Z,101553.31
2023-02-15T11:23:03.658Z,101549.63
2023-02-15T11:25:34.863Z,101553.44
2023-02-15T11:28:07.313Z,101557.31
2023-02-15T11:30:53.187Z,101556.41
2023-02-15T11:33:30.366Z,101550.00
2023-02-15T11:36:15.317Z,101544.06
2023-02-15T11:38:44.792Z,101546.06
2023-02-15T11:41:16.134Z,101557.75
2023-02-15T11:43:55.386Z,101544.59
2023-02-15T11:46:22.964Z,101541.00
2023-02-15T11:48:50.777Z,101535.25
2023-02-15T11:51:24.385Z,101534.91
2023-02-15T11:53:52.896Z,101522.16
2023-02-15T11:56:23.686Z,101509.44
2023-02-15T11:59:04.562Z,101521.50
2023-02-15T12:01:35.717Z,101520.19
2023-02-15T12:04:23.651Z,101513.63
2023-02-15T12:07:02.252Z,101512.06
2023-02-15T12:09:46.836Z,101501.28
2023-02-15T12:12:26.315Z,101510.31
2023-02-15T12:15:06.480Z,101507.50
2023-02-15T12:17:39.237Z,101501.78
2023-02-15T12:20:15.964Z,101501.94
2023-02-15T12:23:04.253Z,101496.31
2023-02-15T12:25:40.802Z,101488.31
2023-02-15T12:28:38.985Z,101481.91
2023-02-15T12:31:21.754Z,101480.44
2023-02-15T12:33:53.763Z,101482.56
2023-02-15T12:36:25.183Z,101484.94
2023-02-15T12:39:13.682Z,101490.63
2023-02-15T12:42:06.048Z,101486.19
2023-02-15T12:44:38.199Z,101484.59
2023-02-15T12:47:17.567Z,101486.50
2023-02-15T12:49:48.083Z,101483.16
2023-02-15T12:52:18.768Z,101485.56
2023-02-15T12:54:46.074Z,101479.19
2023-02-15T12:57:15.306Z,101482.41
2023-02-15T12:59:59.453Z,101481.06
2023-02-15T13:02:51.012Z,101469.38
2023-02-15T13:05:21.361Z,101452.59
2023-02-15T13:07:57.076Z,101448.50
2023-02-15T13:10:35.471Z,101451.00
2023-02-15T13:13:10.299Z,101445.84
2023-02-15T13:15:41.400Z,101449.75
2023-02-15T13:18:40.642Z,101439.97
2023-02-15T13:21:14.268Z,101445.19
2023-02-15T13:24:11.761Z,101441.22
2023-02-15T13:26:39.400Z,101438.44
2023-02-15T13:29:13.129Z,101440.16
2023-02-15T13:31:41.125Z,101439.50
2023-02-15T13:34:21.955Z,101433.69
2023-02-15T13:37:44.644Z,101426.25
2023-02-15T13:40:25.764Z,101436.78
2023-02-15T13:43:37.932Z,101437.47
2023-02-15T13:46:14.398Z,101438.84
2023-02-15T13:48:50.229Z,101438.22
2023-02-15T13:51:47.818Z,101421.38
2023-02-15T13:54:45.846Z,101422.94
2023-02-15T13:57:37.446Z,101424.28
2023-02-15T14:00:26.981Z,101413.84
2023-02-15T14:03:20.024Z,101411.28
2023-02-15T14:06:09.044Z,101402.16
2023-02-15T14:08:58.068Z,101403.50
2023-02-15T14:11:40.555Z,101401.69
2023-02-15T14:14:43.685Z,101390.28
2023-02-15T14:17:42.123Z,101404.72
2023-02-15T14:20:20.751Z,101398.97
2023-02-15T14:23:30.688Z,101399.94
2023-02-15T14:26:10.992Z,101398.16
2023-02-15T14:28:50.379Z,101391.84
2023-02-15T14:31:22.561Z,101382.59
2023-02-15T14:34:00.009Z,101384.41
2023-02-15T14:36:31.320Z,101391.09
2023-02-15T14:39:01.380Z,101385.97
2023-02-15T14:41:54.649Z,101384.22
2023-02-15T14:44:32.176Z,101366.50
2023-02-15T14:47:10.782Z,101373.22
2023-02-15T14:49:39.980Z,101360.56
2023-02-15T14:52:09.641Z,101361.84
2023-02-15T14:54:36.862Z,101365.56
2023-02-15T14:57:04.504Z,101364.75
2023-02-15T14:59:50.496Z,101365.91
2023-02-15T15:02:25.504Z,101354.78
2023-02-15T15:04:52.743Z,101358.88
2023-02-15T15:07:28.152Z,101357.78
2023-02-15T15:10:21.771Z,101351.88
2023-02-15T15:12:59.204Z,101358.06
2023-02-15T15:15:32.344Z,101342.59
2023-02-15T15:18:07.023Z,101354.13
2023-02-15T15:20:52.736Z,101345.69
2023-02-15T15:23:20.184Z,101349.28
2023-02-15T15:25:52.963Z,101343.25
2023-02-15T15:28:35.734Z,101343.66
2023-02-15T15:31:21.263Z,101335.47
2023-02-15T15:34:33.409Z,101341.03
2023-02-15T15:37:12.845Z,101339.16
2023-02-15T15:40:19.241Z,101329.09
2023-02-15T15:42:53.148Z,101334.31
2023-02-15T15:45:46.647Z,101336.13
2023-02-15T15:48:34.556Z,101335.03
2023-02-15T15:51:07.210Z,101322.28
2023-02-15T15:53:42.276Z,101327.41
2023-02-15T15:56:16.499Z,101319.66
2023-02-15T15:58:54.323Z,101313.19
2023-02-15T16:01:30.889Z,101306.44
2023-02-15T16:04:00.043Z,101304.16
2023-02-15T16:06:36.913Z,101301.22
2023-02-15T16:09:28.098Z,101303.56
2023-02-15T16:12:06.171Z,101299.81
2023-02-15T16:14:37.729Z,101298.16
2023-02-15T16:17:18.840Z,101283.97
2023-02-15T16:19:46.624Z,101290.88
2023-02-15T16:22:23.085Z,101293.25
2023-02-15T16:25:21.217Z,101296.00
2023-02-15T16:27:49.803Z,101293.28
2023-02-15T16:30:25.648Z,101290.31
2023-02-15T16:33:17.806Z,101284.91
2023-02-15T16:35:54.093Z,101285.53
2023-02-15T16:38:44.409Z,101263.69
2023-02-15T16:41:31.313Z,101267.06
2023-02-15T16:44:04.461Z,101264.50
2023-02-15T16:46:43.895Z,101278.63
2023-02-15T16:49:22.139Z,101261.22
2023-02-15T16:51:59.162Z,101269.94
2023-02-15T16:54:28.174Z,101265.56
2023-02-15T16:56:55.758Z,101258.47
2023-02-15T16:59:23.268Z,101258.06
2023-02-15T17:01:52.991Z,101264.69
2023-02-15T17:04:23.630Z,101263.03
2023-02-15T17:07:13.922Z,101259.28
2023-02-15T17:09:51.277Z,101248.78
2023-02-15T17:12:47.808Z,101256.75
2023-02-15T17:15:40.116Z,101253.59
2023-02-15T17:18:18.843Z,101245.06
2023-02-15T17:20:49.016Z,101256.09
2023-02-15T17:23:36.960Z,101234.19
2023-02-15T17:26:17.844Z,101246.00
2023-02-15T17:29:20.623Z,101261.16
2023-02-15T17:31:51.254Z,101249.22
2023-02-15T17:34:45.515Z,101261.75
2023-02-15T17:37:23.724Z,101246.69
2023-02-15T17:39:51.307Z,101250.47
2023-02-15T17:42:19.001Z,101238.00
2023-02-15T17:44:46.335Z,101237.50
2023-02-15T17:47:20.700Z,101236.78
2023-02-15T17:49:50.256Z,101243.09
2023-02-15T17:52:18.634Z,101232.66
2023-02-15T17:55:04.634Z,101230.91
2023-02-15T17:57:32.329Z,101222.28
2023-02-15T18:00:18.004Z,101207.03
2023-02-15T18:03:05.515Z,101209.94
2023-02-15T18:05:51.561Z,101211.28
2023-02-15T18:08:43.258Z,101212.50
2023-02-15T18:11:29.575Z,101212.47
2023-02-15T18:14:01.608Z,101215.38
2023-02-15T18:16:36.259Z,101199.28
2023-02-15T18:19:06.134Z,101207.13
2023-02-15T18:21:33.900Z,101202.75
2023-02-15T18:24:01.744Z,101198.38
2023-02-15T18:26:29.954Z,101191.09
2023-02-15T18:28:57.624Z,101190.97
2023-02-15T18:31:25.180Z,101196.34
2023-02-15T18:33:59.695Z,101202.66
2023-02-15T18:36:32.858Z,101198.59
2023-02-15T18:39:04.708Z,101203.44
2023-02-15T18:41:34.306Z,101182.31
2023-02-15T18:44:01.876Z,101181.25
2023-02-15T18:46:29.188Z,101182.88
2023-02-15T18:48:56.769Z,101196.88
2023-02-15T18:51:24.331Z,101186.09
2023-02-15T18:53:53.348Z,101190.16
2023-02-15T18:56:22.831Z,101174.13
2023-02-15T18:58:50.424Z,101162.28
2023-02-15T19:01:21.726Z,101159.53
2023-02-15T19:03:51.425Z,101186.09
2023-02-15T19:06:21.730Z,101180.97
2023-02-15T19:08:52.303Z,101185.53
2023-02-15T19:11:23.294Z,101200.03
2023-02-15T19:13:52.538Z,101192.75
2023-02-15T19:16:31.776Z,101189.00
2023-02-15T19:18:59.778Z,101172.06
2023-02-15T19:21:31.961Z,101166.50
2023-02-15T19:24:05.031Z,101174.09
2023-02-15T19:26:44.825Z,101173.31
2023-02-15T19:29:15.648Z,101165.72
2023-02-15T19:31:43.097Z,101145.34
2023-02-15T19:34:17.030Z,101148.47
2023-02-15T19:36:47.327Z,101160.06
2023-02-15T19:39:30.347Z,101149.53
2023-02-15T19:41:57.620Z,101149.41
2023-02-15T19:44:25.297Z,101155.47
2023-02-15T19:46:52.578Z,101155.88
2023-02-15T19:49:20.182Z,101149.97
2023-02-15T19:51:47.817Z,101153.47
2023-02-15T19:54:35.017Z,101160.44
2023-02-15T19:57:02.374Z,101159.06
2023-02-15T19:59:32.904Z,101152.69
2023-02-15T20:02:00.466Z,101138.25
2023-02-15T20:04:28.376Z,101137.22
2023-02-15T20:06:57.965Z,101141.84
2023-02-15T20:09:29.528Z,101135.94
2023-02-15T20:11:56.877Z,101127.69
2023-02-15T20:14:24.971Z,101130.44
2023-02-15T20:16:52.346Z,101136.66
2023-02-15T20:19:19.615Z,101136.25
2023-02-15T20:21:54.662Z,101129.13
2023-02-15T20:24:23.955Z,101138.91
2023-02-15T20:26:51.585Z,101148.22
2023-02-15T20:29:19.394Z,101132.44
2023-02-15T20:31:47.060Z,101143.72
2023-02-15T20:34:14.474Z,101134.41
2023-02-15T20:36:42.236Z,101132.41
2023-02-15T20:39:16.629Z,101130.63
2023-02-15T20:41:47.992Z,101124.50
2023-02-15T20:44:31.271Z,101135.63
2023-02-15T20:47:00.381Z,101119.66
2023-02-15T20:49:27.935Z,101119.44
2023-02-15T20:51:56.699Z,101114.75
2023-02-15T20:54:26.784Z,101116.81
2023-02-15T20:56:54.542Z,101108.69
2023-02-15T20:59:25.196Z,101119.28
2023-02-15T21:01:58.528Z,101112.31
2023-02-15T21:04:31.607Z,101112.81
2023-02-15T21:07:02.663Z,101104.81
2023-02-15T21:09:31.815Z,101104.72
2023-02-15T21:12:02.755Z,101106.44
2023-02-15T21:14:30.094Z,101116.81
2023-02-15T21:16:57.637Z,101105.31
2023-02-15T21:19:25.195Z,101101.63
2023-02-15T21:21:53.721Z,101102.22
2023-02-15T21:24:25.991Z,101113.44
2023-02-15T21:26:55.347Z,101097.97
2023-02-15T21:29:25.726Z,101102.31
2023-02-15T21:31:53.331Z,101098.34
2023-02-15T21:34:21.206Z,101109.41
2023-02-15T21:36:50.743Z,101097.63
2023-02-15T21:39:19.876Z,101099.56
2023-02-15T21:42:07.433Z,101087.88
2023-02-15T21:44:53.713Z,101095.28
2023-02-15T21:47:45.478Z,101087.72
2023-02-15T21:50:35.526Z,101084.69
2023-02-15T21:53:05.133Z,101073.44
2023-02-15T21:55:33.303Z,101067.63
2023-02-15T21:58:01.461Z,101060.47
2023-02-15T22:00:29.952Z,101072.63
2023-02-15T22:03:00.967Z,101069.75
2023-02-15T22:05:33.408Z,101072.72
2023-02-15T22:08:01.162Z,101066.56
2023-02-15T22:10:33.005Z,101061.34
2023-02-15T22:13:02.176Z,101057.50
2023-02-15T22:15:35.812Z,101046.28
2023-02-15T22:18:04.448Z,101060.78
2023-02-15T22:20:32.106Z,101064.28
2023-02-15T22:22:59.631Z,101065.50
2023-02-15T22:25:27.335Z,101052.88
2023-02-15T22:27:55.410Z,101048.94
2023-02-15T22:30:27.254Z,101057.63
2023-02-15T22:32:56.491Z,101050.47
2023-02-15T22:35:27.490Z,101046.28
2023-02-15T22:37:56.307Z,101047.84
2023-02-15T22:40:30.005Z,101047.63
2023-02-15T22:42:59.817Z,101046.63
2023-02-15T22:45:30.488Z,101049.56
2023-02-15T22:48:00.369Z,101043.47
2023-02-15T22:50:33.035Z,101031.28
2023-02-15T22:53:02.452Z,101027.69
2023-02-15T22:55:34.075Z,101021.00
2023-02-15T22:58:02.655Z,101019.25
2023-02-15T23:00:35.492Z,101022.72
2023-02-15T23:03:31.333Z,101017.56
2023-02-15T23:05:58.800Z,101010.72
2023-02-15T23:08:26.304Z,101018.06
2023-02-15T23:10:56.185Z,101017.59
2023-02-15T23:13:29.321Z,101019.69
2023-02-15T23:15:59.712Z,101008.72
2023-02-15T23:18:42.245Z,101018.16
2023-02-15T23:21:15.517Z,101007.56
2023-02-15T23:23:47.593Z,101001.13
2023-02-15T23:26:17.827Z,101007.97
2023-02-15T23:28:46.039Z,101000.78
2023-02-15T23:31:24.102Z,101000.59
2023-02-15T23:33:53.008Z,100994.41
2023-02-15T23:36:28.663Z,100989.56
2023-02-15T23:38:58.501Z,100998.81
2023-02-15T23:41:29.143Z,100990.41
2023-02-15T23:44:00.644Z,100986.22
2023-02-15T23:46:38.801Z,100984.81
2023-02-15T23:49:15.042Z,100985.56
2023-02-15T23:51:48.074Z,100980.50
2023-02-15T23:54:17.894Z,100978.91
2023-02-15T23:56:48.451Z,100979.13
2023-02-15T23:59:22.656Z,100975.03
